Etusivu
METAR-TAF:

METAR-TAF

Lentoasemat :

Nantesin kansainvälinen lentoasema

Nantes, Ranska

Leveyspiiri: 47-10N, Pituuspiiri: 001-36W, korkeus merenpinnasta: 27 m

Tämänhetkinen sää

Tämä raportti tehtiin 30 minuuttia sitten, kello 21.30 UTC
Tuuli 4 kn lännestä/luoteesta
Lämpötila 19°C
Kosteus 83%
Ilmanpaine 1018 hPa
Näkyvyys 10 km tai enemmän
ei pilviä alle 1500 m:ssä eikä cumulonimbus-pilviä

METAR: LFRS 222130Z AUTO 29004KT CAVOK 19/16 Q1018 NOSIG

Aika: 00:00 (22:00 UTC)

Sääennuste

Tämä raportti tehtiin 5 tuntia ja 0 minuuttia sitten, kello 17.00 UTC
Ennuste voimassa 22. päivästä klo 18 UTC - 23. päivään klo 24 UTC
Tuuli 5 kn lännestä
Näkyvyys 10 km tai enemmän
ei pilviä alle 1500 m:ssä eikä cumulonimbus-pilviä
Todennäköisyys 30% :
Ajoittain
23. päivästä klo 02 UTC - 23. päivään klo 06 UTC
Näkyvyys: 4000 m
utua

TAF: LFRS 221700Z 2218/2324 28005KT CAVOK PROB30 TEMPO 2302/2306 4000 BR

Säähavainnot ja -ennusteet yli 4000 lentoasemalta (METAR- ja TAF-raportit).

Käytössä olevat sääasemat on merkitty karttaan keltaisilla ja punaisilla pisteillä.

Aseta hiiri pisteen päälle nähdäksesi sääaseman nimen.

Klikkaa sitten nähdäksesi säähavainnot ja -ennusteet.

Kartan vaihtaminen: klikkaa mustalla rastilla varustettuja vihreitä pisteitä, niin voit zoomata sisään; viivalla varustettua vihreää pistettä, niin voit zoomata ulos tai vihreitä nuolia, niin pääset viereisille kartoille.


METAR-TAF: